createdAt,value
2022-08-26T00:02:07.334Z,49.81
2022-08-26T00:04:36.611Z,50.56
2022-08-26T00:07:05.496Z,50.66
2022-08-26T00:09:38.953Z,50.51
2022-08-26T00:12:09.376Z,50.58
2022-08-26T00:14:40.880Z,50.45
2022-08-26T00:17:09.112Z,50.56
2022-08-26T00:19:38.900Z,50.49
2022-08-26T00:22:07.220Z,50.76
2022-08-26T00:24:35.008Z,50.95
2022-08-26T00:27:02.897Z,50.92
2022-08-26T00:29:35.558Z,51.09
2022-08-26T00:32:06.569Z,51.34
2022-08-26T00:34:36.271Z,51.46
2022-08-26T00:37:08.926Z,51.87
2022-08-26T00:39:37.834Z,52.03
2022-08-26T00:42:06.078Z,52.28
2022-08-26T00:44:33.896Z,52.41
2022-08-26T00:47:04.983Z,52.63
2022-08-26T00:49:39.695Z,52.48
2022-08-26T00:52:13.260Z,52.61
2022-08-26T00:54:47.041Z,52.55
2022-08-26T00:57:17.652Z,53.09
2022-08-26T00:59:47.972Z,53.14
2022-08-26T01:02:20.217Z,53.39
2022-08-26T01:04:55.993Z,53.25
2022-08-26T01:07:27.476Z,53.32
2022-08-26T01:09:55.933Z,53.52
2022-08-26T01:12:24.960Z,53.28
2022-08-26T01:14:53.166Z,53.63
2022-08-26T01:17:21.044Z,53.82
2022-08-26T01:19:53.532Z,54.07
2022-08-26T01:22:26.639Z,54.19
2022-08-26T01:24:58.490Z,54.29
2022-08-26T01:27:32.732Z,54.49
2022-08-26T01:30:03.142Z,54.27
2022-08-26T01:32:34.077Z,54.17
2022-08-26T01:35:03.037Z,54.60
2022-08-26T01:37:40.317Z,54.48
2022-08-26T01:40:17.674Z,54.65
2022-08-26T01:42:46.729Z,54.76
2022-08-26T01:45:18.383Z,55.05
2022-08-26T01:47:49.692Z,55.01
2022-08-26T01:50:30.351Z,55.32
2022-08-26T01:53:01.121Z,55.21
2022-08-26T01:55:33.355Z,55.44
2022-08-26T01:58:06.383Z,55.55
2022-08-26T02:00:35.667Z,55.45
2022-08-26T02:03:18.490Z,55.69
2022-08-26T02:05:48.736Z,55.51
2022-08-26T02:08:24.735Z,55.48
2022-08-26T02:10:55.240Z,55.59
2022-08-26T02:13:25.323Z,55.31
2022-08-26T02:15:55.281Z,55.66
2022-08-26T02:18:24.316Z,55.23
2022-08-26T02:20:54.327Z,55.64
2022-08-26T02:23:22.217Z,55.52
2022-08-26T02:25:57.947Z,55.56
2022-08-26T02:28:30.836Z,55.66
2022-08-26T02:30:59.001Z,55.79
2022-08-26T02:33:29.250Z,56.34
2022-08-26T02:35:57.277Z,56.38
2022-08-26T02:38:25.099Z,56.51
2022-08-26T02:40:52.859Z,57.09
2022-08-26T02:43:23.847Z,57.08
2022-08-26T02:46:01.837Z,57.42
2022-08-26T02:48:30.151Z,57.43
2022-08-26T02:51:00.190Z,57.83
2022-08-26T02:53:28.091Z,58.11
2022-08-26T02:55:59.895Z,58.15
2022-08-26T02:58:29.297Z,57.86
2022-08-26T03:00:57.087Z,57.56
2022-08-26T03:03:25.206Z,57.77
2022-08-26T03:05:53.093Z,57.50
2022-08-26T03:08:22.646Z,57.47
2022-08-26T03:10:50.940Z,58.24
2022-08-26T03:13:19.174Z,57.81
2022-08-26T03:15:48.647Z,57.68
2022-08-26T03:18:16.455Z,57.97
2022-08-26T03:20:44.207Z,58.03
2022-08-26T03:23:12.804Z,58.09
2022-08-26T03:25:41.000Z,58.52
2022-08-26T03:28:09.537Z,58.51
2022-08-26T03:30:45.248Z,58.57
2022-08-26T03:33:15.380Z,58.56
2022-08-26T03:35:45.206Z,58.83
2022-08-26T03:38:13.026Z,58.67
2022-08-26T03:40:42.424Z,58.92
2022-08-26T03:43:12.050Z,59.34
2022-08-26T03:45:41.078Z,59.06
2022-08-26T03:48:11.318Z,59.29
2022-08-26T03:50:41.623Z,58.99
2022-08-26T03:53:13.270Z,59.01
2022-08-26T03:55:41.453Z,59.05
2022-08-26T03:58:09.377Z,58.80
2022-08-26T04:00:37.171Z,58.70
2022-08-26T04:03:05.229Z,58.73
2022-08-26T04:05:37.754Z,58.68
2022-08-26T04:08:07.973Z,58.56
2022-08-26T04:10:38.589Z,58.45
2022-08-26T04:13:06.472Z,58.70
2022-08-26T04:15:34.274Z,58.92
2022-08-26T04:18:02.041Z,59.05
2022-08-26T04:20:29.921Z,59.18
2022-08-26T04:22:57.916Z,59.26
2022-08-26T04:25:27.665Z,59.13
2022-08-26T04:27:55.943Z,59.48
2022-08-26T04:30:25.533Z,59.45
2022-08-26T04:32:53.671Z,59.64
2022-08-26T04:35:25.720Z,59.66
2022-08-26T04:37:54.701Z,59.76
2022-08-26T04:40:22.559Z,59.58
2022-08-26T04:42:51.699Z,59.51
2022-08-26T04:45:22.886Z,59.70
2022-08-26T04:47:54.629Z,59.84
2022-08-26T04:50:23.961Z,59.67
2022-08-26T04:52:52.778Z,59.66
2022-08-26T04:55:20.532Z,59.41
2022-08-26T04:57:54.755Z,59.67
2022-08-26T05:00:23.052Z,59.81
2022-08-26T05:02:51.534Z,60.00
2022-08-26T05:05:19.515Z,59.57
2022-08-26T05:07:48.594Z,59.69
2022-08-26T05:10:17.919Z,59.59
2022-08-26T05:12:46.529Z,59.60
2022-08-26T05:15:15.767Z,59.48
2022-08-26T05:17:44.125Z,59.44
2022-08-26T05:20:12.451Z,59.28
2022-08-26T05:22:40.343Z,59.55
2022-08-26T05:25:09.139Z,59.44
2022-08-26T05:27:36.930Z,60.12
2022-08-26T05:30:06.542Z,60.70
2022-08-26T05:32:35.801Z,60.49
2022-08-26T05:35:04.114Z,60.83
2022-08-26T05:37:38.383Z,60.85
2022-08-26T05:40:07.119Z,61.17
2022-08-26T05:42:36.220Z,61.20
2022-08-26T05:45:04.467Z,60.84
2022-08-26T05:47:32.336Z,60.72
2022-08-26T05:50:05.996Z,60.25
2022-08-26T05:52:33.847Z,60.18
2022-08-26T05:55:02.192Z,60.07
2022-08-26T05:57:31.170Z,59.75
2022-08-26T05:59:59.131Z,59.80
2022-08-26T06:02:26.979Z,59.43
2022-08-26T06:04:55.039Z,59.42
2022-08-26T06:07:44.263Z,59.37
2022-08-26T06:10:32.358Z,59.19
2022-08-26T06:13:09.412Z,59.20
2022-08-26T06:15:42.925Z,58.95
2022-08-26T06:18:13.808Z,58.96
2022-08-26T06:20:44.078Z,59.51
2022-08-26T06:23:46.042Z,59.42
2022-08-26T06:26:14.634Z,59.34
2022-08-26T06:28:43.658Z,59.03
2022-08-26T06:31:14.220Z,58.42
2022-08-26T06:33:42.986Z,57.60
2022-08-26T06:36:10.822Z,57.04
2022-08-26T06:38:40.132Z,56.68
2022-08-26T06:41:12.048Z,56.33
2022-08-26T06:43:40.050Z,56.38
2022-08-26T06:46:12.066Z,55.99
2022-08-26T06:48:40.150Z,55.71
2022-08-26T06:51:10.849Z,55.11
2022-08-26T06:53:41.232Z,54.71
2022-08-26T06:56:11.910Z,54.67
2022-08-26T06:58:41.653Z,54.74
2022-08-26T07:01:17.086Z,53.96
2022-08-26T07:03:47.084Z,53.77
2022-08-26T07:06:19.103Z,53.65
2022-08-26T07:08:48.289Z,53.18
2022-08-26T07:11:17.041Z,52.73
2022-08-26T07:13:44.822Z,52.18
2022-08-26T07:16:16.348Z,52.38
2022-08-26T07:18:45.798Z,51.72
2022-08-26T07:21:18.164Z,51.55
2022-08-26T07:23:46.300Z,51.65
2022-08-26T07:26:18.569Z,51.00
2022-08-26T07:28:48.706Z,51.10
2022-08-26T07:31:17.586Z,51.21
2022-08-26T07:33:46.560Z,50.94
2022-08-26T07:36:15.991Z,50.60
2022-08-26T07:38:45.205Z,50.02
2022-08-26T07:41:14.621Z,49.92
2022-08-26T07:43:43.941Z,49.75
2022-08-26T07:46:16.263Z,49.37
2022-08-26T07:48:46.057Z,48.77
2022-08-26T07:51:14.960Z,48.44
2022-08-26T07:53:43.267Z,47.56
2022-08-26T07:56:11.232Z,47.12
2022-08-26T07:58:39.794Z,46.50
2022-08-26T08:01:09.874Z,45.77
2022-08-26T08:03:37.795Z,45.67
2022-08-26T08:06:06.407Z,44.83
2022-08-26T08:08:35.562Z,44.35
2022-08-26T08:11:03.629Z,43.96
2022-08-26T08:13:33.897Z,43.64
2022-08-26T08:16:01.871Z,43.33
2022-08-26T08:18:31.154Z,43.00
2022-08-26T08:21:20.910Z,42.18
2022-08-26T08:23:49.760Z,42.32
2022-08-26T08:26:17.815Z,42.11
2022-08-26T08:28:47.897Z,41.46
2022-08-26T08:31:44.961Z,41.21
2022-08-26T08:34:12.358Z,40.86
2022-08-26T08:36:40.250Z,40.75
2022-08-26T08:39:09.506Z,40.94
2022-08-26T08:41:53.391Z,40.27
2022-08-26T08:46:59.324Z,40.04
2022-08-26T08:49:29.409Z,39.55
2022-08-26T08:52:04.235Z,39.23
2022-08-26T08:54:32.704Z,39.63
2022-08-26T08:57:07.274Z,39.10
2022-08-26T08:59:38.414Z,38.60
2022-08-26T09:02:18.742Z,38.25
2022-08-26T09:05:07.780Z,38.34
2022-08-26T09:07:40.351Z,38.32
2022-08-26T09:10:32.221Z,37.59
2022-08-26T09:13:02.575Z,37.85
2022-08-26T09:15:37.354Z,37.68
2022-08-26T09:18:12.091Z,37.17
2022-08-26T09:20:50.804Z,36.68
2022-08-26T09:23:19.243Z,36.89
2022-08-26T09:25:50.717Z,37.12
2022-08-26T09:28:20.599Z,37.35
2022-08-26T09:31:08.009Z,37.71
2022-08-26T09:33:39.354Z,37.29
2022-08-26T09:36:24.082Z,37.07
2022-08-26T09:38:53.590Z,36.15
2022-08-26T09:41:26.567Z,36.32
2022-08-26T09:44:16.946Z,36.34
2022-08-26T09:46:55.650Z,35.52
2022-08-26T09:49:32.660Z,35.36
2022-08-26T09:52:22.550Z,35.90
2022-08-26T09:55:04.892Z,34.82
2022-08-26T09:57:35.095Z,34.98
2022-08-26T10:00:03.603Z,34.45
2022-08-26T10:02:47.934Z,34.73
2022-08-26T10:05:20.160Z,34.38
2022-08-26T10:07:52.589Z,34.83
2022-08-26T10:10:25.080Z,33.89
2022-08-26T10:13:03.086Z,34.16
2022-08-26T10:15:40.507Z,34.24
2022-08-26T10:18:21.001Z,33.48
2022-08-26T10:20:56.681Z,33.52
2022-08-26T10:23:28.445Z,33.23
2022-08-26T10:25:59.404Z,33.32
2022-08-26T10:28:33.780Z,33.16
2022-08-26T10:31:06.114Z,33.10
2022-08-26T10:33:34.281Z,33.12
2022-08-26T10:36:07.440Z,32.77
2022-08-26T10:38:44.719Z,32.45
2022-08-26T10:41:15.888Z,31.92
2022-08-26T10:43:50.115Z,31.73
2022-08-26T10:46:27.327Z,31.09
2022-08-26T10:48:59.988Z,30.88
2022-08-26T10:51:35.562Z,31.24
2022-08-26T10:54:10.891Z,31.17
2022-08-26T10:56:47.127Z,31.70
2022-08-26T10:59:25.095Z,31.46
2022-08-26T11:02:06.762Z,31.63
2022-08-26T11:04:48.172Z,31.38
2022-08-26T11:07:40.451Z,31.55
2022-08-26T11:10:13.971Z,30.79
2022-08-26T11:12:55.182Z,30.71
2022-08-26T11:16:08.356Z,30.49
2022-08-26T11:18:47.452Z,30.52
2022-08-26T11:21:52.223Z,30.11
2022-08-26T11:24:46.495Z,29.75
2022-08-26T11:28:02.300Z,29.74
2022-08-26T11:30:57.485Z,29.27
2022-08-26T11:33:58.159Z,29.21
2022-08-26T11:37:04.127Z,28.75
2022-08-26T11:39:38.447Z,29.16
2022-08-26T11:42:23.127Z,28.89
2022-08-26T11:44:51.587Z,28.86
2022-08-26T11:47:29.454Z,28.68
2022-08-26T11:50:12.738Z,28.20
2022-08-26T11:52:40.771Z,28.73
2022-08-26T11:55:11.623Z,28.68
2022-08-26T11:57:45.076Z,28.04
2022-08-26T12:00:22.290Z,28.31
2022-08-26T12:02:52.706Z,28.28
2022-08-26T12:05:26.819Z,28.35
2022-08-26T12:08:03.088Z,28.47
2022-08-26T12:10:33.833Z,28.59
2022-08-26T12:13:03.606Z,28.76
2022-08-26T12:15:32.828Z,28.71
2022-08-26T12:18:18.154Z,28.53
2022-08-26T12:20:54.039Z,28.33
2022-08-26T12:23:26.850Z,28.62
2022-08-26T12:26:05.142Z,28.46
2022-08-26T12:28:33.150Z,28.39
2022-08-26T12:31:03.265Z,28.44
2022-08-26T12:33:34.066Z,27.98
2022-08-26T12:36:02.397Z,29.31
2022-08-26T12:38:33.925Z,29.56
2022-08-26T12:41:01.907Z,28.86
2022-08-26T12:43:44.190Z,29.36
2022-08-26T12:46:15.341Z,29.64
2022-08-26T12:48:49.769Z,29.97
2022-08-26T12:51:24.508Z,30.06
2022-08-26T12:53:52.833Z,29.69
2022-08-26T12:56:27.596Z,29.94
2022-08-26T12:59:03.835Z,29.20
2022-08-26T13:01:39.137Z,29.24
2022-08-26T13:04:08.540Z,29.22
2022-08-26T13:06:36.468Z,29.62
2022-08-26T13:09:25.811Z,29.07
2022-08-26T13:12:02.221Z,29.06
2022-08-26T13:14:30.471Z,28.40
2022-08-26T13:16:58.309Z,28.09
2022-08-26T13:19:29.565Z,28.74
2022-08-26T13:21:59.902Z,28.09
2022-08-26T13:24:32.034Z,28.14
2022-08-26T13:27:00.327Z,28.24
2022-08-26T13:29:28.253Z,28.00
2022-08-26T13:31:56.838Z,27.14
2022-08-26T13:34:25.665Z,26.75
2022-08-26T13:36:56.338Z,27.39
2022-08-26T13:39:25.458Z,27.76
2022-08-26T13:41:53.615Z,27.55
2022-08-26T13:44:21.667Z,26.96
2022-08-26T13:46:49.934Z,27.78
2022-08-26T13:49:17.753Z,27.51
2022-08-26T13:51:45.661Z,27.94
2022-08-26T13:54:14.971Z,27.79
2022-08-26T13:56:42.831Z,27.34
2022-08-26T13:59:11.533Z,27.79
2022-08-26T14:01:40.444Z,27.70
2022-08-26T14:04:08.711Z,27.54
2022-08-26T14:06:37.415Z,27.16
2022-08-26T14:09:05.659Z,27.23
2022-08-26T14:11:46.719Z,26.99
2022-08-26T14:14:22.568Z,27.39
2022-08-26T14:16:56.072Z,28.42
2022-08-26T14:19:29.487Z,29.03
2022-08-26T14:21:57.295Z,29.20
2022-08-26T14:24:25.143Z,29.42
2022-08-26T14:26:54.305Z,29.65
2022-08-26T14:29:22.095Z,29.86
2022-08-26T14:31:49.959Z,29.64
2022-08-26T14:34:18.006Z,29.86
2022-08-26T14:36:45.853Z,30.94
2022-08-26T14:39:14.771Z,32.76
2022-08-26T14:41:53.916Z,32.57
2022-08-26T14:44:28.743Z,33.58
2022-08-26T14:46:57.402Z,33.95
2022-08-26T14:49:27.342Z,33.82
2022-08-26T14:51:55.613Z,33.93
2022-08-26T14:54:23.553Z,33.80
2022-08-26T14:56:54.980Z,34.47
2022-08-26T14:59:30.211Z,34.88
2022-08-26T15:01:58.527Z,34.74
2022-08-26T15:04:26.466Z,35.61
2022-08-26T15:06:55.936Z,35.29
2022-08-26T15:09:24.553Z,35.16
2022-08-26T15:11:53.017Z,35.70
2022-08-26T15:14:21.911Z,36.70
2022-08-26T15:16:53.824Z,37.17
2022-08-26T15:19:22.606Z,37.95
2022-08-26T15:21:51.337Z,40.52
2022-08-26T15:24:21.990Z,42.79
2022-08-26T15:26:50.031Z,43.65
2022-08-26T15:29:18.080Z,43.63
2022-08-26T15:31:46.189Z,43.49
2022-08-26T15:34:16.938Z,43.58
2022-08-26T15:36:46.289Z,43.71
2022-08-26T15:39:15.718Z,43.21
2022-08-26T15:41:43.793Z,42.57
2022-08-26T15:44:13.717Z,41.91
2022-08-26T15:46:42.148Z,43.44
2022-08-26T15:49:17.761Z,44.40
2022-08-26T15:51:50.453Z,44.99
2022-08-26T15:54:19.514Z,45.21
2022-08-26T15:56:49.080Z,46.28
2022-08-26T15:59:17.314Z,47.42
2022-08-26T16:01:45.584Z,48.66
2022-08-26T16:04:13.944Z,49.74
2022-08-26T16:06:43.468Z,50.52
2022-08-26T16:09:12.710Z,50.39
2022-08-26T16:11:40.446Z,50.95
2022-08-26T16:14:08.901Z,50.61
2022-08-26T16:16:39.326Z,51.07
2022-08-26T16:19:07.746Z,50.86
2022-08-26T16:21:36.341Z,51.12
2022-08-26T16:24:04.930Z,51.16
2022-08-26T16:26:36.262Z,51.58
2022-08-26T16:29:07.612Z,51.49
2022-08-26T16:31:37.263Z,51.53
2022-08-26T16:34:05.586Z,51.58
2022-08-26T16:36:34.061Z,52.31
2022-08-26T16:39:02.472Z,52.14
2022-08-26T16:41:31.935Z,52.48
2022-08-26T16:44:01.414Z,53.06
2022-08-26T16:46:29.706Z,52.88
2022-08-26T16:48:59.098Z,52.96
2022-08-26T16:51:28.959Z,53.27
2022-08-26T16:53:58.276Z,52.03
2022-08-26T16:56:34.414Z,50.69
2022-08-26T16:59:05.628Z,49.82
2022-08-26T17:01:33.625Z,48.98
2022-08-26T17:04:01.496Z,48.77
2022-08-26T17:06:29.757Z,48.76
2022-08-26T17:08:57.560Z,48.97
2022-08-26T17:11:25.513Z,49.20
2022-08-26T17:13:53.504Z,49.21
2022-08-26T17:16:26.678Z,48.93
2022-08-26T17:18:56.232Z,49.18
2022-08-26T17:21:24.246Z,49.60
2022-08-26T17:23:52.266Z,49.85
2022-08-26T17:26:20.173Z,50.50
2022-08-26T17:28:48.008Z,50.25
2022-08-26T17:31:15.950Z,50.72
2022-08-26T17:33:48.881Z,50.81
2022-08-26T17:36:21.262Z,51.01
2022-08-26T17:38:50.537Z,51.34
2022-08-26T17:41:22.056Z,51.61
2022-08-26T17:43:49.921Z,51.81
2022-08-26T17:46:18.031Z,51.68
2022-08-26T17:48:48.348Z,51.52
2022-08-26T17:51:19.178Z,51.92
2022-08-26T17:53:48.672Z,51.76
2022-08-26T17:56:18.624Z,51.87
2022-08-26T17:58:48.194Z,52.06
2022-08-26T18:01:19.548Z,52.14
2022-08-26T18:03:49.313Z,52.28
2022-08-26T18:06:17.275Z,52.24
2022-08-26T18:08:45.129Z,52.44
2022-08-26T18:11:15.110Z,52.83
2022-08-26T18:13:45.837Z,52.93
2022-08-26T18:16:18.088Z,53.06
2022-08-26T18:18:46.706Z,53.05
2022-08-26T18:21:18.960Z,53.36
2022-08-26T18:23:46.849Z,53.73
2022-08-26T18:26:19.062Z,53.89
2022-08-26T18:28:46.702Z,54.17
2022-08-26T18:31:15.278Z,54.65
2022-08-26T18:33:44.710Z,54.79
2022-08-26T18:36:19.678Z,54.77
2022-08-26T18:38:47.687Z,55.02
2022-08-26T18:41:20.802Z,55.07
2022-08-26T18:43:50.391Z,55.37
2022-08-26T18:46:19.515Z,55.32
2022-08-26T18:48:49.080Z,55.55
2022-08-26T18:51:22.373Z,55.53
2022-08-26T18:53:50.728Z,55.79
2022-08-26T18:56:18.960Z,55.76
2022-08-26T18:58:46.821Z,56.10
2022-08-26T19:01:15.745Z,55.84
2022-08-26T19:03:43.712Z,55.87
2022-08-26T19:06:15.307Z,55.86
2022-08-26T19:08:44.798Z,55.79
2022-08-26T19:11:13.835Z,55.88
2022-08-26T19:13:42.187Z,56.02
2022-08-26T19:16:16.657Z,56.16
2022-08-26T19:18:44.580Z,56.08
2022-08-26T19:21:12.572Z,56.43
2022-08-26T19:23:40.687Z,56.24
2022-08-26T19:26:11.016Z,56.32
2022-08-26T19:28:40.723Z,56.37
2022-08-26T19:31:10.359Z,56.49
2022-08-26T19:33:39.617Z,56.55
2022-08-26T19:36:10.440Z,56.52
2022-08-26T19:38:42.797Z,56.59
2022-08-26T19:41:13.674Z,56.46
2022-08-26T19:43:41.497Z,56.70
2022-08-26T19:46:13.803Z,56.68
2022-08-26T19:48:43.965Z,56.86
2022-08-26T19:51:13.738Z,56.90
2022-08-26T19:53:42.033Z,57.05
2022-08-26T19:56:09.830Z,57.13
2022-08-26T19:58:39.462Z,57.47
2022-08-26T20:01:08.309Z,57.62
2022-08-26T20:03:36.726Z,57.59
2022-08-26T20:06:05.951Z,57.80
2022-08-26T20:08:34.619Z,58.19
2022-08-26T20:11:04.853Z,57.94
2022-08-26T20:13:32.849Z,58.03
2022-08-26T20:16:02.055Z,58.13
2022-08-26T20:18:47.373Z,58.28
2022-08-26T20:21:28.007Z,58.10
2022-08-26T20:23:58.452Z,58.19
2022-08-26T20:26:28.127Z,58.16
2022-08-26T20:28:56.561Z,58.39
2022-08-26T20:31:27.050Z,58.07
2022-08-26T20:33:55.010Z,58.20
2022-08-26T20:36:25.826Z,58.32
2022-08-26T20:38:54.438Z,59.55
2022-08-26T20:41:24.025Z,60.17
2022-08-26T20:43:51.863Z,61.86
2022-08-26T20:46:24.111Z,62.33
2022-08-26T20:48:54.956Z,62.93
2022-08-26T20:51:26.092Z,62.70
2022-08-26T20:53:54.087Z,62.92
2022-08-26T20:56:24.301Z,64.66
2022-08-26T20:58:52.223Z,64.77
2022-08-26T21:01:23.516Z,66.84
2022-08-26T21:03:53.863Z,66.49
2022-08-26T21:06:21.851Z,67.37
2022-08-26T21:08:51.173Z,66.91
2022-08-26T21:11:19.655Z,66.80
2022-08-26T21:14:04.280Z,67.15
2022-08-26T21:16:36.714Z,68.75
2022-08-26T21:19:07.333Z,69.82
2022-08-26T21:21:35.334Z,68.75
2022-08-26T21:24:03.515Z,68.87
2022-08-26T21:26:31.261Z,69.76
2022-08-26T21:28:59.088Z,70.18
2022-08-26T21:31:27.022Z,70.19
2022-08-26T21:33:54.904Z,70.65
2022-08-26T21:36:24.122Z,70.10
2022-08-26T21:38:51.954Z,70.15
2022-08-26T21:41:22.028Z,70.08
2022-08-26T21:43:51.158Z,70.35
2022-08-26T21:46:23.570Z,70.42
2022-08-26T21:48:54.730Z,70.81
2022-08-26T21:51:25.911Z,71.18
2022-08-26T21:53:55.271Z,71.60
2022-08-26T21:56:24.867Z,71.13
2022-08-26T21:58:53.599Z,71.18
2022-08-26T22:01:23.503Z,71.07
2022-08-26T22:03:53.377Z,71.41
2022-08-26T22:06:23.287Z,70.02
2022-08-26T22:08:53.265Z,69.85
2022-08-26T22:11:21.587Z,69.84
2022-08-26T22:13:50.292Z,69.90
2022-08-26T22:16:18.578Z,69.87
2022-08-26T22:18:46.920Z,69.75
2022-08-26T22:21:18.700Z,70.10
2022-08-26T22:23:47.495Z,69.86
2022-08-26T22:26:25.404Z,70.61
2022-08-26T22:28:58.807Z,70.65
2022-08-26T22:31:38.116Z,70.68
2022-08-26T22:34:08.692Z,70.76
2022-08-26T22:36:43.140Z,71.84
2022-08-26T22:39:13.597Z,70.95
2022-08-26T22:41:43.382Z,71.07
2022-08-26T22:44:12.019Z,71.84
2022-08-26T22:46:41.756Z,72.75
2022-08-26T22:49:11.340Z,72.82
2022-08-26T22:51:39.295Z,73.10
2022-08-26T22:54:07.121Z,74.25
2022-08-26T22:56:35.164Z,74.51
2022-08-26T22:59:04.800Z,74.38
2022-08-26T23:01:35.644Z,74.75
2022-08-26T23:04:04.282Z,73.93
2022-08-26T23:06:32.160Z,74.27
2022-08-26T23:08:59.909Z,74.21
2022-08-26T23:11:27.883Z,74.67
2022-08-26T23:13:56.014Z,73.75
2022-08-26T23:16:25.230Z,74.33
2022-08-26T23:18:53.035Z,74.58
2022-08-26T23:21:21.013Z,74.84
2022-08-26T23:23:48.816Z,75.74
2022-08-26T23:26:17.804Z,75.19
2022-08-26T23:28:46.011Z,75.91
2022-08-26T23:31:14.420Z,76.32
2022-08-26T23:34:01.254Z,76.71
2022-08-26T23:36:31.057Z,77.26
2022-08-26T23:39:03.445Z,76.54
2022-08-26T23:41:32.367Z,76.91
2022-08-26T23:44:03.446Z,77.15
2022-08-26T23:46:31.836Z,76.62
2022-08-26T23:49:01.531Z,76.35
2022-08-26T23:51:46.557Z,76.20
2022-08-26T23:54:16.405Z,76.44
2022-08-26T23:56:44.235Z,76.80
2022-08-26T23:59:12.119Z,76.32
